createdAt,value
2022-12-31T00:01:23.615Z,81.65
2022-12-31T00:03:51.977Z,67.38
2022-12-31T00:06:28.569Z,69.63
2022-12-31T00:08:58.154Z,60.33
2022-12-31T00:11:28.256Z,61.75
2022-12-31T00:13:55.854Z,82.07
2022-12-31T00:16:28.858Z,59.10
2022-12-31T00:18:59.677Z,56.90
2022-12-31T00:21:30.029Z,53.95
2022-12-31T00:23:58.264Z,55.35
2022-12-31T00:26:29.563Z,53.63
2022-12-31T00:28:59.420Z,66.80
2022-12-31T00:31:35.654Z,91.60
2022-12-31T00:34:04.279Z,68.70
2022-12-31T00:36:37.560Z,54.95
2022-12-31T00:39:07.317Z,48.63
2022-12-31T00:41:35.326Z,47.65
2022-12-31T00:44:03.262Z,53.72
2022-12-31T00:46:32.005Z,58.17
2022-12-31T00:48:59.659Z,55.10
2022-12-31T00:51:30.223Z,61.13
2022-12-31T00:53:59.463Z,44.55
2022-12-31T00:56:30.674Z,46.50
2022-12-31T00:59:00.605Z,48.50
2022-12-31T01:01:31.066Z,58.10
2022-12-31T01:04:05.135Z,52.22
2022-12-31T01:06:33.053Z,52.03
2022-12-31T01:09:01.382Z,56.97
2022-12-31T01:11:31.782Z,40.78
2022-12-31T01:14:09.142Z,45.00
2022-12-31T01:16:42.779Z,37.90
2022-12-31T01:19:13.047Z,41.20
2022-12-31T01:21:41.810Z,43.22
2022-12-31T01:24:11.147Z,36.58
2022-12-31T01:26:40.596Z,46.25
2022-12-31T01:29:09.236Z,48.70
2022-12-31T01:31:37.469Z,37.17
2022-12-31T01:34:06.696Z,38.80
2022-12-31T01:36:37.099Z,35.28
2022-12-31T01:39:07.196Z,46.05
2022-12-31T01:41:37.293Z,37.50
2022-12-31T01:44:24.920Z,42.97
2022-12-31T01:46:59.003Z,37.10
2022-12-31T01:49:31.981Z,39.20
2022-12-31T01:52:11.397Z,40.88
2022-12-31T01:54:45.131Z,55.42
2022-12-31T01:57:14.097Z,55.45
2022-12-31T01:59:43.547Z,50.85
2022-12-31T02:02:12.032Z,48.67
2022-12-31T02:04:39.892Z,41.45
2022-12-31T02:07:09.845Z,47.70
2022-12-31T02:09:41.086Z,47.75
2022-12-31T02:12:11.743Z,45.33
2022-12-31T02:14:43.983Z,38.75
2022-12-31T02:17:24.229Z,41.65
2022-12-31T02:20:25.886Z,39.90
2022-12-31T02:23:03.182Z,47.38
2022-12-31T02:26:03.717Z,39.45
2022-12-31T02:28:59.086Z,37.35
2022-12-31T02:31:45.486Z,79.50
2022-12-31T02:34:28.860Z,48.10
2022-12-31T02:37:00.107Z,47.83
2022-12-31T02:39:29.380Z,41.58
2022-12-31T02:41:56.921Z,45.63
2022-12-31T02:44:44.507Z,42.05
2022-12-31T02:47:18.790Z,48.00
2022-12-31T02:50:14.618Z,46.10
2022-12-31T02:53:22.992Z,46.88
2022-12-31T02:56:19.183Z,49.45
2022-12-31T02:59:29.227Z,44.42
2022-12-31T03:02:15.569Z,35.42
2022-12-31T03:04:51.686Z,33.75
2022-12-31T03:07:25.165Z,34.60
2022-12-31T03:09:52.895Z,65.43
2022-12-31T03:12:42.182Z,66.57
2022-12-31T03:15:20.573Z,44.40
2022-12-31T03:18:05.910Z,49.15
2022-12-31T03:21:06.073Z,47.28
2022-12-31T03:24:03.469Z,43.22
2022-12-31T03:26:30.846Z,45.83
2022-12-31T03:28:58.277Z,43.58
2022-12-31T03:31:26.035Z,48.05
2022-12-31T03:33:53.823Z,230.10
2022-12-31T03:36:22.791Z,180.63
2022-12-31T03:38:52.820Z,109.32
2022-12-31T03:41:21.219Z,66.57
2022-12-31T03:43:48.516Z,65.40
2022-12-31T03:46:16.940Z,54.22
2022-12-31T03:48:44.401Z,36.53
2022-12-31T03:51:11.703Z,32.22
2022-12-31T03:53:40.034Z,44.35
2022-12-31T03:56:07.910Z,38.72
2022-12-31T03:58:35.712Z,40.50
2022-12-31T04:01:04.977Z,33.60
2022-12-31T04:03:33.082Z,35.75
2022-12-31T04:06:01.222Z,50.55
2022-12-31T04:08:29.931Z,46.65
2022-12-31T04:10:58.365Z,41.17
2022-12-31T04:13:26.921Z,30.08
2022-12-31T04:15:56.897Z,71.03
2022-12-31T04:18:24.919Z,90.18
2022-12-31T04:20:52.394Z,75.47
2022-12-31T04:23:20.714Z,64.88
2022-12-31T04:25:48.106Z,46.60
2022-12-31T04:28:16.078Z,69.50
2022-12-31T04:30:48.806Z,142.23
2022-12-31T04:33:16.274Z,233.68
2022-12-31T04:35:44.873Z,45.22
2022-12-31T04:38:12.558Z,40.95
2022-12-31T04:40:58.428Z,36.15
2022-12-31T04:43:25.767Z,42.90
2022-12-31T04:45:56.144Z,47.08
2022-12-31T04:48:24.807Z,31.48
2022-12-31T04:50:52.543Z,42.42
2022-12-31T04:53:19.905Z,43.83
2022-12-31T04:55:47.342Z,36.53
2022-12-31T04:58:14.892Z,33.80
2022-12-31T05:00:50.768Z,41.63
2022-12-31T05:03:19.032Z,46.10
2022-12-31T05:05:47.680Z,39.28
2022-12-31T05:08:16.854Z,37.42
2022-12-31T05:10:50.020Z,39.38
2022-12-31T05:13:17.993Z,35.45
2022-12-31T05:15:53.095Z,35.80
2022-12-31T05:18:21.323Z,41.10
2022-12-31T05:20:50.161Z,51.38
2022-12-31T05:23:18.658Z,56.05
2022-12-31T05:25:48.088Z,35.55
2022-12-31T05:28:17.593Z,34.50
2022-12-31T05:30:51.628Z,35.03
2022-12-31T05:33:20.014Z,32.70
2022-12-31T05:35:47.463Z,40.08
2022-12-31T05:38:15.814Z,44.08
2022-12-31T05:40:43.268Z,34.38
2022-12-31T05:43:10.791Z,37.42
2022-12-31T05:45:44.897Z,123.65
2022-12-31T05:48:14.789Z,107.03
2022-12-31T05:50:42.027Z,100.78
2022-12-31T05:53:09.452Z,63.38
2022-12-31T05:55:36.803Z,39.60
2022-12-31T05:58:04.795Z,37.95
2022-12-31T06:00:32.778Z,39.45
2022-12-31T06:03:00.288Z,50.55
2022-12-31T06:05:27.971Z,50.40
2022-12-31T06:07:55.803Z,46.70
2022-12-31T06:10:23.618Z,44.78
2022-12-31T06:12:51.614Z,48.85
2022-12-31T06:15:19.172Z,63.80
2022-12-31T06:17:46.419Z,108.28
2022-12-31T06:20:17.024Z,77.97
2022-12-31T06:22:45.420Z,84.22
2022-12-31T06:25:13.324Z,89.07
2022-12-31T06:27:40.720Z,68.20
2022-12-31T06:30:09.209Z,73.38
2022-12-31T06:32:36.830Z,60.05
2022-12-31T06:35:06.955Z,46.42
2022-12-31T06:37:35.371Z,55.05
2022-12-31T06:40:03.532Z,58.05
2022-12-31T06:42:32.686Z,41.53
2022-12-31T06:45:01.564Z,49.45
2022-12-31T06:47:29.511Z,48.10
2022-12-31T06:49:57.290Z,45.40
2022-12-31T06:52:24.884Z,53.65
2022-12-31T06:54:53.213Z,62.72
2022-12-31T06:57:21.772Z,72.03
2022-12-31T06:59:49.704Z,69.30
2022-12-31T07:02:23.675Z,67.07
2022-12-31T07:05:16.107Z,50.08
2022-12-31T07:08:03.918Z,79.57
2022-12-31T07:10:51.910Z,70.55
2022-12-31T07:13:38.568Z,72.70
2022-12-31T07:16:38.660Z,56.30
2022-12-31T07:19:25.874Z,75.27
2022-12-31T07:21:56.220Z,77.95
2022-12-31T07:24:24.131Z,69.65
2022-12-31T07:27:17.893Z,64.32
2022-12-31T07:29:59.096Z,59.75
2022-12-31T07:32:57.149Z,51.08
2022-12-31T07:35:50.488Z,50.45
2022-12-31T07:38:24.025Z,52.20
2022-12-31T07:41:22.173Z,114.45
2022-12-31T07:44:23.149Z,123.43
2022-12-31T07:47:01.454Z,233.57
2022-12-31T07:49:31.021Z,93.93
2022-12-31T07:51:59.117Z,118.10
2022-12-31T07:54:26.572Z,135.52
2022-12-31T07:56:59.362Z,77.03
2022-12-31T07:59:46.995Z,74.65
2022-12-31T08:02:35.951Z,88.05
2022-12-31T08:05:14.417Z,135.80
2022-12-31T08:08:13.170Z,152.15
2022-12-31T08:11:22.616Z,121.47
2022-12-31T08:13:52.959Z,104.00
2022-12-31T08:16:24.237Z,67.53
2022-12-31T08:18:53.188Z,80.65
2022-12-31T08:21:44.763Z,75.38
2022-12-31T08:24:22.914Z,64.72
2022-12-31T08:27:03.397Z,88.78
2022-12-31T08:29:35.925Z,81.03
2022-12-31T08:32:20.687Z,83.55
2022-12-31T08:35:02.976Z,80.50
2022-12-31T08:37:45.156Z,83.13
2022-12-31T08:40:31.976Z,68.70
2022-12-31T08:43:27.775Z,96.53
2022-12-31T08:45:59.678Z,82.00
2022-12-31T08:48:40.131Z,70.07
2022-12-31T08:51:15.611Z,116.13
2022-12-31T08:53:43.536Z,384.05
2022-12-31T08:56:20.637Z,168.40
2022-12-31T08:59:06.042Z,99.97
2022-12-31T09:02:01.219Z,107.35
2022-12-31T09:04:56.045Z,113.30
2022-12-31T09:07:36.247Z,105.03
2022-12-31T09:10:18.298Z,70.40
2022-12-31T09:13:13.605Z,199.73
2022-12-31T09:15:47.236Z,235.30
2022-12-31T09:18:16.597Z,156.82
2022-12-31T09:20:44.848Z,84.82
2022-12-31T09:30:00.482Z,67.57
2022-12-31T09:32:49.345Z,67.13
2022-12-31T09:35:36.086Z,70.40
2022-12-31T09:38:23.018Z,70.45
2022-12-31T09:41:17.638Z,88.60
2022-12-31T09:44:31.731Z,62.38
2022-12-31T09:47:36.988Z,64.95
2022-12-31T09:50:21.815Z,67.85
2022-12-31T09:53:14.398Z,64.18
2022-12-31T09:56:13.464Z,61.35
2022-12-31T09:59:20.962Z,48.97
2022-12-31T10:02:01.800Z,53.67
2022-12-31T10:04:52.519Z,48.53
2022-12-31T10:07:21.266Z,71.88
2022-12-31T10:09:57.059Z,60.05
2022-12-31T10:12:52.504Z,66.05
2022-12-31T10:15:50.861Z,129.85
2022-12-31T10:18:29.293Z,165.50
2022-12-31T10:21:19.995Z,168.65
2022-12-31T10:24:08.783Z,345.08
2022-12-31T10:27:01.791Z,72.43
2022-12-31T10:29:49.216Z,79.18
2022-12-31T10:32:24.987Z,87.63
2022-12-31T10:35:26.131Z,78.38
2022-12-31T10:38:12.553Z,67.40
2022-12-31T10:40:42.772Z,75.63
2022-12-31T10:46:22.673Z,43.22
2022-12-31T10:49:22.181Z,50.55
2022-12-31T10:52:16.812Z,47.97
2022-12-31T10:55:02.585Z,47.78
2022-12-31T10:57:52.302Z,49.67
2022-12-31T11:00:21.359Z,53.45
2022-12-31T11:03:13.165Z,63.25
2022-12-31T11:06:23.285Z,42.38
2022-12-31T11:09:10.595Z,155.07
2022-12-31T11:12:08.317Z,63.08
2022-12-31T11:14:48.343Z,149.55
2022-12-31T11:17:21.202Z,86.93
2022-12-31T11:20:17.290Z,109.85
2022-12-31T11:23:04.960Z,156.40
2022-12-31T11:25:44.739Z,146.00
2022-12-31T11:29:04.506Z,225.45
2022-12-31T11:32:20.623Z,281.80
2022-12-31T11:35:01.015Z,353.63
2022-12-31T11:37:49.830Z,49.55
2022-12-31T11:40:38.393Z,40.40
2022-12-31T11:43:20.235Z,42.55
2022-12-31T11:46:06.790Z,33.00
2022-12-31T11:49:05.310Z,41.72
2022-12-31T11:51:54.050Z,38.28
2022-12-31T11:54:58.206Z,46.42
2022-12-31T11:57:28.309Z,45.05
2022-12-31T12:00:10.327Z,41.80
2022-12-31T12:02:46.995Z,49.05
2022-12-31T12:05:17.433Z,53.47
2022-12-31T12:07:45.097Z,55.25
2022-12-31T12:10:33.573Z,45.97
2022-12-31T12:13:27.714Z,41.80
2022-12-31T12:16:05.523Z,52.78
2022-12-31T12:18:47.558Z,39.83
2022-12-31T12:21:20.823Z,46.42
2022-12-31T12:23:57.315Z,41.15
2022-12-31T12:26:41.830Z,52.00
2022-12-31T12:29:21.636Z,46.75
2022-12-31T12:32:16.008Z,40.00
2022-12-31T12:34:49.387Z,38.65
2022-12-31T12:37:30.148Z,62.58
2022-12-31T12:40:19.469Z,48.97
2022-12-31T12:42:52.024Z,79.00
2022-12-31T12:45:51.487Z,70.85
2022-12-31T12:48:42.629Z,42.08
2022-12-31T12:51:43.989Z,44.03
2022-12-31T12:54:48.476Z,51.45
2022-12-31T12:57:25.836Z,46.30
2022-12-31T13:00:16.233Z,39.35
2022-12-31T13:03:08.137Z,48.50
2022-12-31T13:05:55.400Z,44.40
2022-12-31T13:08:29.203Z,38.33
2022-12-31T13:11:18.913Z,46.83
2022-12-31T13:14:31.357Z,47.40
2022-12-31T13:17:13.873Z,40.30
2022-12-31T13:20:05.837Z,126.32
2022-12-31T13:22:48.225Z,107.10
2022-12-31T13:25:38.849Z,45.63
2022-12-31T13:28:12.016Z,46.75
2022-12-31T13:30:48.247Z,32.72
2022-12-31T13:33:29.104Z,34.80
2022-12-31T13:36:08.494Z,30.73
2022-12-31T13:39:02.547Z,33.25
2022-12-31T13:42:10.996Z,37.42
2022-12-31T13:44:56.313Z,26.13
2022-12-31T13:47:43.104Z,27.05
2022-12-31T13:50:20.390Z,34.15
2022-12-31T13:52:54.543Z,26.60
2022-12-31T13:55:45.562Z,30.70
2022-12-31T13:58:20.824Z,36.28
2022-12-31T14:00:59.029Z,30.48
2022-12-31T14:03:49.936Z,32.15
2022-12-31T14:06:40.674Z,32.45
2022-12-31T14:09:15.499Z,31.73
2022-12-31T14:12:24.853Z,22.77
2022-12-31T14:15:04.051Z,33.90
2022-12-31T14:17:49.679Z,29.93
2022-12-31T14:20:49.987Z,39.20
2022-12-31T14:23:46.355Z,31.83
2022-12-31T14:26:17.072Z,25.38
2022-12-31T14:29:01.557Z,27.80
2022-12-31T14:31:48.777Z,33.25
2022-12-31T14:34:16.443Z,40.42
2022-12-31T14:37:07.891Z,41.95
2022-12-31T14:40:23.632Z,45.45
2022-12-31T14:43:06.662Z,45.67
2022-12-31T14:45:56.687Z,49.95
2022-12-31T14:48:37.135Z,50.08
2022-12-31T14:51:05.970Z,46.17
2022-12-31T14:53:34.787Z,53.22
2022-12-31T14:56:28.621Z,62.25
2022-12-31T14:59:01.748Z,88.82
2022-12-31T15:01:30.254Z,99.90
2022-12-31T15:03:59.638Z,72.47
2022-12-31T15:06:43.499Z,79.22
2022-12-31T15:09:36.167Z,105.13
2022-12-31T15:12:30.562Z,130.70
2022-12-31T15:15:24.289Z,118.57
2022-12-31T15:17:55.042Z,152.38
2022-12-31T15:21:02.981Z,244.77
2022-12-31T15:23:38.969Z,158.18
2022-12-31T15:26:20.478Z,172.30
2022-12-31T15:29:05.380Z,148.95
2022-12-31T15:31:35.694Z,111.57
2022-12-31T15:34:06.143Z,81.97
2022-12-31T15:39:28.624Z,61.85
2022-12-31T15:45:17.371Z,94.25
2022-12-31T15:47:50.600Z,67.25
2022-12-31T15:50:23.629Z,99.45
2022-12-31T15:53:02.175Z,104.07
2022-12-31T15:55:34.363Z,113.25
2022-12-31T15:58:18.985Z,203.55
2022-12-31T16:01:05.158Z,204.13
2022-12-31T16:03:35.197Z,130.20
2022-12-31T16:06:13.598Z,109.20
2022-12-31T16:08:46.882Z,107.10
2022-12-31T16:11:16.785Z,239.15
2022-12-31T16:13:50.527Z,249.30
2022-12-31T16:16:24.614Z,284.02
2022-12-31T16:19:00.698Z,327.77
2022-12-31T16:21:33.128Z,298.48
2022-12-31T16:24:29.864Z,327.42
2022-12-31T16:27:02.896Z,289.90
2022-12-31T16:29:31.107Z,303.73
2022-12-31T16:31:59.583Z,392.50
2022-12-31T16:34:28.532Z,309.15
2022-12-31T16:37:01.554Z,298.30
2022-12-31T16:39:32.778Z,296.02
2022-12-31T16:42:20.385Z,295.20
2022-12-31T16:44:49.106Z,281.88
2022-12-31T16:47:41.583Z,278.00
2022-12-31T16:50:17.331Z,289.55
2022-12-31T16:52:48.459Z,304.13
2022-12-31T16:55:23.673Z,312.52
2022-12-31T16:57:55.902Z,273.85
2022-12-31T17:00:26.440Z,261.83
2022-12-31T17:06:07.400Z,162.48
2022-12-31T17:08:45.068Z,168.68
2022-12-31T17:11:52.153Z,212.73
2022-12-31T17:14:23.449Z,219.95
2022-12-31T17:17:03.652Z,211.77
2022-12-31T17:19:42.832Z,210.93
2022-12-31T17:22:36.968Z,202.05
2022-12-31T17:25:15.344Z,187.63
2022-12-31T17:27:54.380Z,181.10
2022-12-31T17:30:45.704Z,154.88
2022-12-31T17:33:21.815Z,103.18
2022-12-31T17:35:55.233Z,54.15
2022-12-31T17:38:26.007Z,51.08
2022-12-31T17:40:54.902Z,73.82
2022-12-31T17:43:23.895Z,79.93
2022-12-31T17:45:55.865Z,55.97
2022-12-31T17:48:25.168Z,57.50
2022-12-31T17:51:01.214Z,45.65
2022-12-31T17:53:29.269Z,40.38
2022-12-31T17:56:02.505Z,50.38
2022-12-31T17:58:43.726Z,46.58
2022-12-31T18:01:16.074Z,44.25
2022-12-31T18:03:44.125Z,48.40
2022-12-31T18:06:16.495Z,54.92
2022-12-31T18:08:45.279Z,43.80
2022-12-31T18:11:18.566Z,55.45
2022-12-31T18:13:47.099Z,73.72
2022-12-31T18:16:15.473Z,134.93
2022-12-31T18:18:43.971Z,123.80
2022-12-31T18:21:34.730Z,83.40
2022-12-31T18:26:34.140Z,53.25
2022-12-31T18:29:19.467Z,56.45
2022-12-31T18:31:49.295Z,31.73
2022-12-31T18:34:18.531Z,52.00
2022-12-31T18:36:46.665Z,47.50
2022-12-31T18:39:14.388Z,69.72
2022-12-31T18:41:51.456Z,61.17
2022-12-31T18:44:19.700Z,83.22
2022-12-31T18:46:47.823Z,83.90
2022-12-31T18:49:15.086Z,59.78
2022-12-31T18:51:43.106Z,68.20
2022-12-31T18:54:12.110Z,72.90
2022-12-31T18:56:46.521Z,67.47
2022-12-31T18:59:15.149Z,74.38
2022-12-31T19:01:43.150Z,77.65
2022-12-31T19:04:16.885Z,67.45
2022-12-31T19:06:48.720Z,68.80
2022-12-31T19:09:43.586Z,61.15
2022-12-31T19:12:05.502Z,47.72
2022-12-31T19:14:32.891Z,56.38
2022-12-31T19:19:28.970Z,41.17
2022-12-31T19:21:56.324Z,51.40
2022-12-31T19:24:29.627Z,44.90
2022-12-31T19:26:57.117Z,64.82
2022-12-31T19:29:27.051Z,45.55
2022-12-31T19:31:54.910Z,43.42
2022-12-31T19:34:23.128Z,56.00
2022-12-31T19:36:50.466Z,46.65
2022-12-31T19:39:21.908Z,52.92
2022-12-31T19:41:56.615Z,85.53
2022-12-31T19:44:26.908Z,72.65
2022-12-31T19:46:55.223Z,47.40
2022-12-31T19:49:23.551Z,36.63
2022-12-31T19:51:51.237Z,38.88
2022-12-31T19:54:18.743Z,41.95
2022-12-31T19:56:46.438Z,42.13
2022-12-31T19:59:13.826Z,38.83
2022-12-31T20:01:42.695Z,38.67
2022-12-31T20:04:10.274Z,40.60
2022-12-31T20:06:38.707Z,46.83
2022-12-31T20:09:06.067Z,59.40
2022-12-31T20:11:33.549Z,63.38
2022-12-31T20:14:02.842Z,78.55
2022-12-31T20:16:33.078Z,53.42
2022-12-31T20:19:01.047Z,36.35
2022-12-31T20:21:29.579Z,37.83
2022-12-31T20:23:57.352Z,46.92
2022-12-31T20:26:26.055Z,48.92
2022-12-31T20:28:54.153Z,54.55
2022-12-31T20:31:24.945Z,47.33
2022-12-31T20:36:24.172Z,49.67
2022-12-31T20:38:51.814Z,104.50
2022-12-31T20:41:22.242Z,98.47
2022-12-31T20:43:51.588Z,76.65
2022-12-31T20:46:22.592Z,60.42
2022-12-31T20:48:52.591Z,61.20
2022-12-31T20:51:22.186Z,55.33
2022-12-31T20:53:57.650Z,50.15
2022-12-31T20:56:28.054Z,43.33
2022-12-31T20:58:55.510Z,65.95
2022-12-31T21:01:23.866Z,57.95
2022-12-31T21:04:08.611Z,58.90
2022-12-31T21:06:36.789Z,51.42
2022-12-31T21:09:07.534Z,49.35
2022-12-31T21:11:54.484Z,47.13
2022-12-31T21:14:22.125Z,47.60
2022-12-31T21:16:50.098Z,85.05
2022-12-31T21:19:17.551Z,99.25
2022-12-31T21:21:44.973Z,79.45
2022-12-31T21:24:12.844Z,75.90
2022-12-31T21:26:41.324Z,67.22
2022-12-31T21:29:09.952Z,45.15
2022-12-31T21:31:37.404Z,54.97
2022-12-31T21:34:04.663Z,80.28
2022-12-31T21:36:33.198Z,60.65
2022-12-31T21:39:01.472Z,50.38
2022-12-31T21:41:48.157Z,44.60
2022-12-31T21:44:16.736Z,43.15
2022-12-31T21:47:15.944Z,54.63
2022-12-31T21:49:31.591Z,56.72
2022-12-31T21:52:45.267Z,39.90
2022-12-31T21:55:43.719Z,48.60
2022-12-31T21:58:31.696Z,59.15
2022-12-31T22:01:19.930Z,40.17
2022-12-31T22:03:48.148Z,45.15
2022-12-31T22:06:22.615Z,46.25
2022-12-31T22:08:52.334Z,50.53
2022-12-31T22:15:21.752Z,48.42
2022-12-31T22:17:54.595Z,52.15
2022-12-31T22:20:29.516Z,51.92
2022-12-31T22:22:56.985Z,50.90
2022-12-31T22:25:24.378Z,52.03
2022-12-31T22:28:27.721Z,53.83
2022-12-31T22:30:45.615Z,61.50
2022-12-31T22:33:12.974Z,51.92
2022-12-31T22:35:41.374Z,48.97
2022-12-31T22:38:12.137Z,50.10
2022-12-31T22:40:40.400Z,50.33
2022-12-31T22:43:07.728Z,55.53
2022-12-31T22:45:42.329Z,65.78
2022-12-31T22:48:11.165Z,228.00
2022-12-31T22:50:39.916Z,136.90
2022-12-31T22:53:07.367Z,53.58
2022-12-31T22:55:35.916Z,52.13
2022-12-31T22:58:03.776Z,50.28
2022-12-31T23:00:40.612Z,57.00
2022-12-31T23:03:08.402Z,50.80
2022-12-31T23:05:35.992Z,48.47
2022-12-31T23:08:11.867Z,50.85
2022-12-31T23:11:00.509Z,54.15
2022-12-31T23:13:50.999Z,48.65
2022-12-31T23:16:40.230Z,49.20
2022-12-31T23:19:28.557Z,60.15
2022-12-31T23:22:15.603Z,46.08
2022-12-31T23:24:43.978Z,48.17
2022-12-31T23:27:11.864Z,42.47
2022-12-31T23:29:46.661Z,58.45
2022-12-31T23:32:16.729Z,55.83
2022-12-31T23:34:46.733Z,55.42
2022-12-31T23:37:14.886Z,74.68
2022-12-31T23:39:43.468Z,59.55
2022-12-31T23:42:10.941Z,60.78
2022-12-31T23:44:39.061Z,48.70
2022-12-31T23:47:06.781Z,48.75
2022-12-31T23:49:35.249Z,46.25
2022-12-31T23:52:09.722Z,67.07
2022-12-31T23:54:48.548Z,70.97
2022-12-31T23:57:17.615Z,68.53
2022-12-31T23:59:46.408Z,57.70
